• Join FlightAware (Why Join?)
  • Login
  • US Flag 
09:58PM EDT


 

Airport Tracker/Info


-or-


 

Live Flight TrackerFlight Track Log ✈ RPA3284 ✈ 09-Jul-2013 ✈ KCLT - KALB

Flight Track Log - Related Links

Times and Time Zones

All times are in EDT time to prevent confusion due to time zone crossing. See the RPA3284 flight status page for this flight to view local times or setup timezone preferences in your user account.

Time Position Orientation Groundspeed Altitude Reporting Facility
EDT Latitude Longitude Course Direction KTS MPH feet Rate Location/Type
05:43PM 35.1911 -80.9508 52° Northeast 164 189 1,400  Level Atlanta Center
05:45PM 35.1406 -81.0164 227° Southwest 244 281 3,800 2,040 Climbing Atlanta Center
05:46PM 35.1860 -81.2167 North  Level FlightAware Approximate
05:46PM 35.1386 -81.0975 268° West 268 308 6,600  Level Atlanta Center
05:47PM 35.2753 -81.1908 68° East  Level FlightAware Approximate
05:47PM 35.2058 -81.1258 341° North 225 259 9,200  Level Atlanta Center
05:48PM 35.3340 -81.0872 52° Northeast  Level FlightAware Approximate
05:48PM 35.2797 -81.0747 29° Northeast 240 276 11,200  Level Atlanta Center
05:49PM 35.3600 -81.0211 29° Northeast 289 333 13,000 1,740 Climbing Atlanta Center
05:50PM 35.4503 -80.9692 25° Northeast 339 390 14,700 1,860 Climbing Atlanta Center
05:51PM 35.5478 -80.9400 14° North 357 411 16,800 1,620 Climbing Atlanta Center
05:53PM 35.7506 -80.8811 13° North 375 432 19,600 1,380 Climbing Atlanta Center
05:54PM 35.8589 -80.8694 North 384 442 21,100 1,320 Climbing Atlanta Center
05:55PM 35.9689 -80.8547 North 390 449 22,300 1,260 Climbing Atlanta Center
05:56PM 36.0833 -80.8400 North 395 455 23,700 1,080 Climbing Atlanta Center
05:57PM 36.1997 -80.8250 North 408 470 24,500 960 Climbing Atlanta Center
05:59PM 36.4367 -80.7950 North 422 486 26,600 900 Climbing Atlanta Center
06:00PM 36.5425 -80.7778 North 422 486 27,300 720 Climbing Atlanta Center
06:01PM 36.6675 -80.7647 North 428 493 28,100 900 Climbing Atlanta Center
06:02PM 36.8006 -80.7517 North 433 498 29,100 960 Climbing Atlanta Center
06:04PM 37.0286 -80.7250 North 444 511 31,100 1,020 Climbing Washington Center
06:05PM 37.1489 -80.6967 11° North 444 511 32,100 960 Climbing Washington Center
06:06PM 37.2631 -80.6600 14° North 431 496 33,000 420 Climbing Washington Center
06:07PM 37.3794 -80.6206 15° North 426 490 33,000 540 Level Washington Center
06:08PM 37.4853 -80.5831 16° North 432 497 34,200 480 Climbing Washington Center
06:09PM 37.6039 -80.5436 15° North 432 497 34,000 -120 Descending Washington Center
06:10PM 37.7244 -80.5044 14° North 437 503 34,000  Level Washington Center
06:11PM 37.8428 -80.4647 15° North 437 503 34,000  Level Washington Center
06:12PM 37.9739 -80.4206 15° North 443 510 34,000  Level Washington Center
06:13PM 38.0925 -80.3781 16° North 443 510 34,000 240 Level Washington Center
06:14PM 38.2108 -80.3381 15° North 443 510 34,500 480 Climbing Washington Center
06:15PM 38.3250 -80.2978 15° North 437 503 35,000 240 Climbing Washington Center
06:16PM 38.4328 -80.2622 14° North 437 503 35,000  Level Washington Center
06:20PM 38.8864 -80.0978 16° North 429 494 35,000  Level Cleveland Center
06:21PM 39.0094 -80.0889 North 434 499 35,000  Level Cleveland Center
06:22PM 39.1261 -80.0961 357° North 427 491 35,000  Level Cleveland Center
06:23PM 39.2428 -80.0819 North 422 486 35,000  Level Cleveland Center
06:24PM 39.3381 -79.9819 39° Northeast 423 487 35,000  Level Cleveland Center
06:25PM 39.4269 -79.8683 45° Northeast 448 516 35,000  Level Cleveland Center
06:26PM 39.5181 -79.7542 44° Northeast 448 516 35,000  Level Cleveland Center
06:27PM 39.6067 -79.6372 45° Northeast 448 516 35,000  Level Cleveland Center
06:28PM 39.6953 -79.5200 45° Northeast 448 516 35,000  Level Cleveland Center
06:29PM 39.7858 -79.4025 45° Northeast 448 516 35,000  Level Cleveland Center
06:30PM 39.8742 -79.2872 45° Northeast 448 516 35,000  Level Cleveland Center
06:31PM 39.9647 -79.1692 45° Northeast 448 516 35,000  Level Cleveland Center
06:32PM 40.0547 -79.0533 45° Northeast 448 516 35,000  Level Cleveland Center
06:33PM 40.1367 -78.9375 47° Northeast 443 510 35,000  Level Cleveland Center
06:34PM 40.2286 -78.8208 44° Northeast 443 510 35,000  Level Cleveland Center
06:35PM 40.3144 -78.7044 46° Northeast 443 510 35,000  Level Cleveland Center
06:36PM 40.4786 -78.4828 46° Northeast 449 517 35,000  Level New York Center
06:37PM 40.5769 -78.3517 45° Northeast 449 517 35,000  Level New York Center
06:38PM 40.6636 -78.2325 46° Northeast 454 522 35,000  Level New York Center
06:39PM 40.7547 -78.1081 46° Northeast 454 522 35,000  Level New York Center
06:40PM 40.8433 -77.9886 46° Northeast 454 522 35,000  Level New York Center
06:41PM 40.9300 -77.8686 46° Northeast 454 522 35,000 -180 Level New York Center
06:42PM 41.0183 -77.7486 46° Northeast 454 522 34,700 -1,080 Descending New York Center
06:43PM 41.1067 -77.6281 46° Northeast 454 522 32,900 -1,860 Descending New York Center
06:44PM 41.1972 -77.5022 46° Northeast 454 522 31,000 -1,920 Descending New York Center
06:45PM 41.2872 -77.3814 45° Northeast 459 528 29,100 -1,020 Descending New York Center
06:46PM 41.3667 -77.2647 48° Northeast 459 528 29,000 -60 Descending New York Center
06:47PM 41.4589 -77.1378 46° Northeast 466 536 29,000  Level New York Center
06:48PM 41.5514 -77.0081 46° Northeast 472 543 29,000  Level New York Center
06:49PM 41.6369 -76.8856 47° Northeast 462 532 29,000  Level New York Center
06:50PM 41.7267 -76.7575 47° Northeast 462 532 29,000  Level New York Center
06:51PM 41.8139 -76.6372 46° Northeast 462 532 29,000 -660 Level New York Center
06:54PM 42.0250 -76.3308 47° Northeast 463 533 26,800 -1,200 Descending Boston Center
06:55PM 42.1106 -76.2103 46° Northeast 449 517 25,000 -1,440 Descending Boston Center
06:56PM 42.1794 -76.0769 55° Northeast 437 503 24,000 -540 Descending Boston Center
06:57PM 42.2319 -75.9314 64° Northeast 426 490 24,000  Level Boston Center
06:58PM 42.2869 -75.7717 65° Northeast 426 490 24,000  Level Boston Center
06:59PM 42.3200 -75.6358 72° East 421 484 24,000  Level Boston Center
07:00PM 42.3575 -75.4803 72° East 421 484 24,000  Level Boston Center
07:01PM 42.4011 -75.3278 69° East 426 490 24,000 -360 Level Boston Center
07:02PM 42.4528 -75.1781 65° Northeast 426 490 23,300 -1,560 Descending Boston Center
07:03PM 42.5000 -75.0367 66° East 426 490 20,900 -2,400 Descending Boston Center
07:04PM 42.5489 -74.9006 64° Northeast 410 472 18,500 -2,520 Descending Boston Center
07:05PM 42.6039 -74.7561 63° Northeast 390 449 15,900 -2,580 Descending Boston Center
07:05PM 42.6408 -74.6897 53° Northeast 372 428 14,400 -2,460 Descending Boston Center
07:06PM 42.6692 -74.6286 58° Northeast 369 425 13,200 -2,400 Descending Boston Center
07:07PM 42.6983 -74.5167 70° East 359 413 11,100 -1,440 Descending Boston Center
07:08PM 42.7339 -74.3906 69° East 320 368 10,300 -1,140 Descending Boston Center
07:09PM 42.7625 -74.2925 68° East 309 356 8,900 -1,620 Descending Boston Center
07:10PM 42.7911 -74.1914 69° East 288 331 7,300 -1,500 Descending Boston Center
07:11PM 42.8156 -74.0931 71° East 278 320 5,900 -1,380 Descending Boston Center
07:12PM 42.8356 -74.0086 72° East 273 314 4,600 -1,200 Descending Boston Center
07:13PM 42.8622 -73.8903 73° East 256 295 3,300 -1,200 Descending Boston Center
07:14PM 42.8319 -73.8161 119° Southeast 181 208 1,900 -1,320 Descending Boston Center